Time;durP1;ratioP1;P1;durP2;ratioP2;P2;SDS_P1;SDS_P2;PMS_P1;PMS_P2;Temp;Humidity;BMP_temperature;BMP_pressure;BME280_temperature;BME280_humidity;BME280_pressure;Samples;Min_cycle;Max_cycle;Signal;HPM_P1;HPM_P2
2021/07/05 00:00:38;;;;;;;4.05;1.50;;;20.80;68.70;;;;;;5103322;28;27387;-59
2021/07/05 00:03:22;;;;;;;3.67;0.73;;;20.80;68.80;;;;;;5104159;28;27938;-59
2021/07/05 00:06:07;;;;;;;2.75;0.77;;;20.70;69.00;;;;;;5103860;28;27371;-58
2021/07/05 00:08:52;;;;;;;2.40;0.95;;;20.70;68.80;;;;;;5103996;28;27340;-58
2021/07/05 00:11:36;;;;;;;4.57;0.68;;;20.70;69.00;;;;;;5103959;28;27403;-58
2021/07/05 00:14:20;;;;;;;1.00;0.55;;;20.70;68.90;;;;;;5104148;28;27388;-59
2021/07/05 00:17:05;;;;;;;4.68;0.90;;;20.70;69.00;;;;;;5100266;28;27336;-58
2021/07/05 00:19:50;;;;;;;1.65;0.60;;;20.70;68.90;;;;;;5103758;28;27411;-60
2021/07/05 00:22:35;;;;;;;1.42;0.40;;;20.70;68.90;;;;;;5103876;28;27338;-58
2021/07/05 00:25:20;;;;;;;1.65;0.47;;;20.70;68.90;;;;;;5103741;28;27332;-60
2021/07/05 00:28:08;;;;;;;3.28;0.57;;;20.70;69.00;;;;;;5089175;28;27415;-58
2021/07/05 00:30:53;;;;;;;0.75;0.60;;;20.60;68.90;;;;;;5104034;28;27390;-58
2021/07/05 00:33:38;;;;;;;0.70;0.70;;;20.60;68.90;;;;;;5103449;28;27370;-58
2021/07/05 00:36:22;;;;;;;1.13;0.90;;;20.60;68.90;;;;;;5102522;28;27362;-58
2021/07/05 00:39:07;;;;;;;3.78;0.88;;;20.60;68.90;;;;;;5103524;28;27347;-58
2021/07/05 00:41:52;;;;;;;2.92;0.57;;;20.60;68.90;;;;;;5103104;28;27390;-61
2021/07/05 00:44:37;;;;;;;2.38;0.52;;;20.60;69.00;;;;;;5085151;28;27373;-58
2021/07/05 00:47:21;;;;;;;3.22;0.73;;;20.60;69.00;;;;;;5103271;28;27380;-58
2021/07/05 00:50:07;;;;;;;4.00;0.65;;;20.50;69.00;;;;;;5103439;28;27426;-59
2021/07/05 00:52:53;;;;;;;1.27;0.85;;;20.50;69.00;;;;;;5103413;28;27393;-59
2021/07/05 00:55:38;;;;;;;3.63;0.73;;;20.50;69.00;;;;;;5102612;28;27406;-60
2021/07/05 00:58:23;;;;;;;0.75;0.60;;;20.50;69.00;;;;;;5103639;28;27943;-59
2021/07/05 01:01:07;;;;;;;2.05;0.70;;;20.50;69.20;;;;;;5103074;28;27324;-59
2021/07/05 01:03:52;;;;;;;2.17;0.80;;;20.50;69.20;;;;;;5100338;28;27340;-59
2021/07/05 01:06:37;;;;;;;3.15;0.80;;;20.50;69.20;;;;;;5103293;28;27375;-58
2021/07/05 01:09:22;;;;;;;5.20;0.70;;;20.40;69.20;;;;;;5099390;28;27399;-58
2021/07/05 01:12:07;;;;;;;1.48;0.75;;;20.40;69.30;;;;;;5099122;28;27378;-59
2021/07/05 01:14:52;;;;;;;2.88;0.60;;;20.40;69.30;;;;;;5100168;28;27405;-59
2021/07/05 01:17:37;;;;;;;3.03;1.05;;;20.40;69.30;;;;;;5103273;28;27327;-58
2021/07/05 01:20:24;;;;;;;0.88;0.65;;;20.40;69.30;;;;;;5099260;28;27391;-58
2021/07/05 01:23:10;;;;;;;1.10;0.60;;;20.30;69.20;;;;;;5103012;28;27618;-58
2021/07/05 01:25:54;;;;;;;4.20;0.85;;;20.30;69.30;;;;;;5103395;28;27454;-58
2021/07/05 01:28:39;;;;;;;0.88;0.77;;;20.30;69.30;;;;;;5102762;28;27422;-58
2021/07/05 01:31:24;;;;;;;1.73;0.70;;;20.30;69.30;;;;;;5099142;28;27468;-58
2021/07/05 01:34:08;;;;;;;1.42;0.70;;;20.30;69.30;;;;;;5106736;28;27343;-58
2021/07/05 01:36:53;;;;;;;4.65;0.85;;;20.30;69.30;;;;;;5102251;28;27421;-58
2021/07/05 01:39:38;;;;;;;4.22;0.90;;;20.30;69.30;;;;;;5105286;28;27401;-59
2021/07/05 01:42:23;;;;;;;1.08;0.75;;;20.20;69.30;;;;;;5087785;28;27390;-58
2021/07/05 01:45:08;;;;;;;3.35;0.90;;;20.20;69.40;;;;;;5106225;28;27373;-58
2021/07/05 01:47:53;;;;;;;1.50;0.80;;;20.20;69.50;;;;;;5106305;28;27406;-58
2021/07/05 01:50:37;;;;;;;1.02;0.73;;;20.10;69.40;;;;;;5106492;28;27403;-58
2021/07/05 01:53:22;;;;;;;1.65;0.68;;;20.10;69.30;;;;;;5106341;28;27969;-58
2021/07/05 01:56:07;;;;;;;1.77;0.70;;;20.10;69.50;;;;;;5102746;28;27591;-58
2021/07/05 01:58:52;;;;;;;4.53;0.90;;;20.10;69.50;;;;;;5106383;28;27421;-58
2021/07/05 02:01:37;;;;;;;7.53;0.95;;;20.10;69.40;;;;;;5106334;28;27426;-58
2021/07/05 02:04:25;;;;;;;5.60;0.90;;;20.10;69.50;;;;;;5090894;28;27322;-58
2021/07/05 02:07:09;;;;;;;2.65;0.80;;;20.10;69.50;;;;;;5105914;28;27490;-58
2021/07/05 02:09:54;;;;;;;5.00;0.70;;;20.00;69.40;;;;;;5106175;28;27435;-58
2021/07/05 02:12:40;;;;;;;2.17;0.75;;;20.00;69.40;;;;;;5102818;28;27438;-58
2021/07/05 02:15:25;;;;;;;0.88;0.70;;;20.00;69.50;;;;;;5073257;28;27474;-58
2021/07/05 02:18:09;;;;;;;2.47;0.75;;;20.00;69.50;;;;;;5105756;28;27504;-58
2021/07/05 02:20:59;;;;;;;1.98;0.65;;;20.00;69.60;;;;;;5102495;28;27462;-58
2021/07/05 02:23:44;;;;;;;5.03;0.70;;;19.90;69.60;;;;;;5105457;28;27352;-58
2021/07/05 02:26:28;;;;;;;2.33;0.85;;;19.90;69.60;;;;;;5105606;28;27458;-59
2021/07/05 02:29:13;;;;;;;1.77;0.70;;;19.90;69.70;;;;;;5101403;28;27485;-58
2021/07/05 02:31:57;;;;;;;1.38;0.55;;;19.90;69.70;;;;;;5105539;28;27342;-58
2021/07/05 02:34:42;;;;;;;9.13;2.63;;;19.90;69.70;;;;;;5105564;28;27360;-58
2021/07/05 02:37:26;;;;;;;3.05;0.80;;;19.90;69.70;;;;;;5105267;28;27411;-58
2021/07/05 02:40:12;;;;;;;3.58;0.75;;;19.90;69.80;;;;;;5104739;28;27936;-58
2021/07/05 02:42:57;;;;;;;4.82;0.77;;;19.90;69.90;;;;;;5072247;28;27470;-56
2021/07/05 02:45:42;;;;;;;3.97;0.90;;;19.80;69.80;;;;;;5104961;28;27469;-57
2021/07/05 02:48:29;;;;;;;2.15;0.80;;;19.80;70.20;;;;;;5101172;28;27492;-58
2021/07/05 02:51:13;;;;;;;3.88;0.80;;;19.80;70.00;;;;;;5104863;28;27415;-58
2021/07/05 02:53:58;;;;;;;5.68;1.00;;;19.80;70.00;;;;;;5104388;28;27475;-57
2021/07/05 02:56:43;;;;;;;3.03;0.90;;;19.80;70.10;;;;;;5086680;28;27435;-58
2021/07/05 02:59:27;;;;;;;5.18;1.35;;;19.80;70.10;;;;;;5105025;28;27458;-57
2021/07/05 03:02:12;;;;;;;1.70;0.70;;;19.70;70.00;;;;;;5105137;28;27423;-57
2021/07/05 03:05:01;;;;;;;3.22;0.63;;;19.80;70.10;;;;;;5104209;28;27464;-58
2021/07/05 03:07:45;;;;;;;4.00;0.85;;;19.80;70.10;;;;;;5105226;28;27320;-58
2021/07/05 03:10:33;;;;;;;1.02;0.60;;;19.70;70.10;;;;;;5104776;28;27313;-58
2021/07/05 03:13:18;;;;;;;3.72;0.70;;;19.70;70.10;;;;;;5105119;28;27429;-57
2021/07/05 03:16:02;;;;;;;2.80;0.70;;;19.70;70.10;;;;;;5103884;28;27409;-58
2021/07/05 03:18:47;;;;;;;1.13;0.60;;;19.70;70.10;;;;;;5104514;28;27329;-57
2021/07/05 03:21:32;;;;;;;3.75;1.30;;;19.70;70.20;;;;;;5104880;28;27390;-57
2021/07/05 03:24:16;;;;;;;3.92;0.82;;;19.70;70.20;;;;;;5104560;28;27410;-57
2021/07/05 03:27:01;;;;;;;1.90;0.85;;;19.70;70.20;;;;;;5104837;28;27331;-56
2021/07/05 03:29:45;;;;;;;9.82;0.88;;;19.70;70.40;;;;;;5104661;28;27368;-57
2021/07/05 03:32:29;;;;;;;3.40;1.00;;;19.60;70.30;;;;;;5104497;28;27386;-58
2021/07/05 03:35:15;;;;;;;2.25;1.20;;;19.60;70.30;;;;;;5104649;28;27427;-57
2021/07/05 03:37:59;;;;;;;3.25;1.10;;;19.60;70.30;;;;;;5104775;28;27332;-58
2021/07/05 03:40:45;;;;;;;0.80;0.60;;;19.60;70.30;;;;;;5072768;28;27403;-57
2021/07/05 03:43:30;;;;;;;4.55;0.65;;;19.60;70.30;;;;;;5104360;28;27390;-58
2021/07/05 03:46:15;;;;;;;1.95;0.90;;;19.60;71.20;;;;;;5103971;28;27446;-58
2021/07/05 03:48:59;;;;;;;2.60;0.82;;;19.60;70.40;;;;;;5104360;28;27374;-57
2021/07/05 03:51:44;;;;;;;3.08;0.73;;;19.60;70.40;;;;;;5103829;28;27419;-57
2021/07/05 03:54:29;;;;;;;0.73;0.70;;;19.60;70.50;;;;;;5104171;27;27328;-58
2021/07/05 03:57:32;;;;;;;1.92;0.90;;;19.60;70.60;;;;;;5104183;28;27418;-58
2021/07/05 04:00:20;;;;;;;4.10;0.77;;;19.60;70.70;;;;;;5104248;28;27480;-58
2021/07/05 04:03:04;;;;;;;5.18;0.90;;;19.60;70.70;;;;;;5104263;28;27360;-58
2021/07/05 04:05:51;;;;;;;1.30;1.02;;;19.60;70.80;;;;;;5104394;28;27966;-58
2021/07/05 04:08:35;;;;;;;6.60;0.80;;;19.60;70.90;;;;;;5104337;28;27546;-58
2021/07/05 04:11:20;;;;;;;0.70;0.70;;;19.60;71.00;;;;;;5104445;28;27332;-59
2021/07/05 04:14:05;;;;;;;1.35;0.90;;;19.60;71.10;;;;;;5103737;28;26867;-58
2021/07/05 04:16:50;;;;;;;4.80;0.90;;;19.60;71.20;;;;;;5102906;28;27402;-58
2021/07/05 04:19:35;;;;;;;1.38;0.70;;;19.60;71.30;;;;;;5100592;28;27398;-58
2021/07/05 04:22:20;;;;;;;4.63;0.85;;;19.60;71.30;;;;;;5100189;28;27405;-58
2021/07/05 04:25:06;;;;;;;1.33;0.90;;;19.60;71.40;;;;;;5103814;28;27394;-58
2021/07/05 04:27:52;;;;;;;7.85;1.42;;;19.60;71.50;;;;;;5103897;28;27328;-58
2021/07/05 04:30:36;;;;;;;3.42;1.40;;;19.60;71.60;;;;;;5103752;28;27500;-58
2021/07/05 04:33:21;;;;;;;7.63;0.98;;;19.60;71.60;;;;;;5104008;28;27410;-58
2021/07/05 04:36:05;;;;;;;0.75;0.75;;;19.60;71.80;;;;;;5085117;28;27368;-58
2021/07/05 04:38:50;;;;;;;1.45;0.70;;;19.60;71.90;;;;;;5099749;28;27852;-58
2021/07/05 04:41:35;;;;;;;1.27;1.08;;;19.60;71.90;;;;;;5101632;28;27436;-58
2021/07/05 04:44:20;;;;;;;1.23;0.98;;;19.60;72.20;;;;;;5100655;28;27399;-58
2021/07/05 04:47:05;;;;;;;7.90;1.08;;;19.70;72.50;;;;;;5103550;28;27331;-58
2021/07/05 04:49:49;;;;;;;1.30;0.80;;;19.70;72.50;;;;;;5103464;28;27880;-58
2021/07/05 04:52:34;;;;;;;1.80;0.85;;;19.80;73.30;;;;;;5103468;28;27414;-58
2021/07/05 04:55:19;;;;;;;4.45;1.20;;;19.80;73.70;;;;;;5103485;28;27425;-58
2021/07/05 04:58:06;;;;;;;5.70;1.10;;;19.80;73.80;;;;;;5103489;28;26894;-58
2021/07/05 05:00:51;;;;;;;2.05;1.17;;;19.90;74.00;;;;;;5103711;28;27281;-58
2021/07/05 05:03:38;;;;;;;1.60;1.10;;;19.90;74.00;;;;;;5103636;28;27371;-58
2021/07/05 05:06:23;;;;;;;3.72;1.10;;;19.90;74.30;;;;;;5100363;27;27328;-59
2021/07/05 05:09:08;;;;;;;5.18;1.40;;;19.90;74.10;;;;;;5103951;28;27341;-58
2021/07/05 05:11:52;;;;;;;4.53;1.17;;;19.90;74.50;;;;;;5088419;28;27338;-58
2021/07/05 05:14:38;;;;;;;2.45;1.00;;;19.90;74.70;;;;;;5106802;28;27441;-59
2021/07/05 05:17:23;;;;;;;4.35;1.58;;;19.90;74.20;;;;;;5107477;28;27393;-58
2021/07/05 05:20:09;;;;;;;4.78;1.35;;;19.90;74.80;;;;;;5107715;28;27354;-59
2021/07/05 05:22:53;;;;;;;2.97;1.10;;;19.90;75.00;;;;;;5107280;28;27323;-59
2021/07/05 05:25:38;;;;;;;1.73;1.02;;;19.90;75.20;;;;;;5107288;28;27438;-59
2021/07/05 05:28:23;;;;;;;2.85;1.25;;;19.80;75.10;;;;;;5104313;28;27364;-59
2021/07/05 05:31:08;;;;;;;2.22;0.90;;;19.90;75.10;;;;;;5107286;28;27386;-59
2021/07/05 05:33:52;;;;;;;5.93;1.30;;;19.90;75.40;;;;;;5107102;28;27362;-59
2021/07/05 05:36:37;;;;;;;2.08;1.00;;;19.90;75.40;;;;;;5106391;28;27391;-59
2021/07/05 05:39:21;;;;;;;3.67;1.35;;;19.80;75.30;;;;;;5107475;28;27428;-60
2021/07/05 05:42:06;;;;;;;1.27;1.10;;;19.90;75.60;;;;;;5107090;28;27394;-59
2021/07/05 05:44:51;;;;;;;2.35;1.13;;;19.90;75.50;;;;;;5107337;28;27310;-59
2021/07/05 05:47:36;;;;;;;2.78;1.10;;;19.90;75.30;;;;;;5102901;28;27379;-58
2021/07/05 05:50:22;;;;;;;1.55;1.30;;;19.80;75.40;;;;;;5106970;28;27391;-59
2021/07/05 05:53:06;;;;;;;3.17;1.30;;;19.90;75.70;;;;;;5107165;28;26847;-59
2021/07/05 05:55:51;;;;;;;4.68;1.10;;;19.80;75.70;;;;;;5106940;28;27366;-59
2021/07/05 05:58:41;;;;;;;4.07;1.17;;;19.90;75.90;;;;;;5107071;28;27631;-59
2021/07/05 06:01:25;;;;;;;5.68;1.50;;;19.90;75.90;;;;;;5107100;28;27398;-61
2021/07/05 06:04:23;;;;;;;2.65;1.05;;;19.90;76.10;;;;;;5103369;28;27423;-63
2021/07/05 06:07:08;;;;;;;2.80;1.20;;;19.90;75.90;;;;;;5103658;28;27430;-60
2021/07/05 06:09:52;;;;;;;8.57;1.33;;;19.90;76.20;;;;;;5106850;28;27414;-60
2021/07/05 06:12:36;;;;;;;1.50;1.35;;;20.00;76.40;;;;;;5106633;28;27406;-60
2021/07/05 06:15:22;;;;;;;7.75;1.10;;;20.00;76.20;;;;;;5106711;28;27452;-60
2021/07/05 06:18:07;;;;;;;4.82;1.42;;;20.00;76.50;;;;;;5103162;27;27380;-59
2021/07/05 06:20:51;;;;;;;5.32;1.30;;;20.00;76.10;;;;;;5106665;28;27407;-60
2021/07/05 06:23:36;;;;;;;3.20;1.25;;;20.00;76.20;;;;;;5106736;28;27457;-60
2021/07/05 06:26:20;;;;;;;2.58;1.05;;;20.00;76.40;;;;;;5106347;28;27450;-63
2021/07/05 06:29:05;;;;;;;6.78;1.45;;;20.00;76.60;;;;;;5105927;28;27473;-60
2021/07/05 06:31:50;;;;;;;5.25;1.30;;;20.10;76.40;;;;;;5106285;28;27473;-59
2021/07/05 06:34:34;;;;;;;1.98;1.10;;;20.10;76.60;;;;;;5106665;28;27473;-60
2021/07/05 06:37:19;;;;;;;2.05;1.23;;;20.10;76.60;;;;;;5105944;28;27407;-60
2021/07/05 06:40:05;;;;;;;5.03;1.60;;;20.10;76.60;;;;;;5105787;28;27392;-59
2021/07/05 06:42:49;;;;;;;10.65;1.90;;;20.10;77.00;;;;;;5106373;28;27505;-60
2021/07/05 06:45:34;;;;;;;4.82;1.70;;;20.10;77.40;;;;;;5106146;28;27365;-59
2021/07/05 06:48:19;;;;;;;6.07;1.92;;;20.20;76.90;;;;;;5106287;28;27319;-60
2021/07/05 06:51:04;;;;;;;3.28;1.40;;;20.20;77.10;;;;;;5105927;28;27864;-60
2021/07/05 06:53:48;;;;;;;5.10;1.60;;;20.20;77.10;;;;;;5106172;28;27347;-60
2021/07/05 06:56:33;;;;;;;2.08;1.33;;;20.20;77.10;;;;;;5105562;28;27352;-60
2021/07/05 06:59:17;;;;;;;6.65;1.27;;;20.20;77.30;;;;;;5105829;28;27339;-60
2021/07/05 07:02:02;;;;;;;3.00;1.50;;;20.20;77.20;;;;;;5104937;28;27419;-59
2021/07/05 07:04:46;;;;;;;7.75;1.90;;;20.20;77.60;;;;;;5102372;28;27469;-59
2021/07/05 07:07:31;;;;;;;8.10;1.60;;;20.20;77.30;;;;;;5105779;28;27389;-59
2021/07/05 07:10:18;;;;;;;4.78;1.65;;;20.20;77.00;;;;;;5105902;28;27363;-59
2021/07/05 07:13:02;;;;;;;10.63;3.05;;;20.30;77.30;;;;;;5105840;28;27335;-59
2021/07/05 07:15:53;;;;;;;4.32;1.58;;;20.30;77.80;;;;;;5105402;28;27415;-59
2021/07/05 07:21:28;;;;;;;2.05;1.10;;;20.40;77.60;;;;;;5105311;28;27335;-60
2021/07/05 07:24:12;;;;;;;8.38;1.42;;;20.40;76.90;;;;;;5105458;28;27973;-59
2021/07/05 07:26:57;;;;;;;4.30;1.27;;;20.40;75.90;;;;;;5104553;28;27343;-59
2021/07/05 07:29:42;;;;;;;1.42;1.10;;;20.50;75.90;;;;;;5104868;27;27363;-59
2021/07/05 07:32:26;;;;;;;3.70;1.23;;;20.50;76.70;;;;;;5105204;28;27383;-59
2021/07/05 07:35:15;;;;;;;3.92;1.42;;;20.50;77.30;;;;;;5105423;28;27893;-59
2021/07/05 07:38:01;;;;;;;1.60;1.25;;;20.60;78.20;;;;;;5105082;28;27443;-59
2021/07/05 07:40:46;;;;;;;5.10;1.80;;;20.60;78.20;;;;;;5104398;28;27447;-59
2021/07/05 07:43:31;;;;;;;6.38;1.40;;;20.70;78.60;;;;;;5105309;28;27449;-59
2021/07/05 07:46:16;;;;;;;1.55;1.30;;;20.70;79.00;;;;;;5105079;28;27888;-59
2021/07/05 07:49:00;;;;;;;3.33;1.48;;;20.80;79.10;;;;;;5101980;28;27415;-59
2021/07/05 07:51:45;;;;;;;4.10;1.33;;;20.80;79.40;;;;;;5104664;28;27485;-59
2021/07/05 07:54:30;;;;;;;1.77;1.13;;;20.80;80.30;;;;;;5104464;28;27471;-59
2021/07/05 07:57:17;;;;;;;1.77;1.30;;;20.90;80.20;;;;;;5104894;28;27517;-59
2021/07/05 08:00:07;;;;;;;2.97;1.23;;;20.90;80.20;;;;;;5104888;28;27402;-59
2021/07/05 08:02:57;;;;;;;1.70;1.42;;;20.90;80.20;;;;;;5101372;28;27317;-59
2021/07/05 08:05:41;;;;;;;4.85;0.90;;;20.90;79.90;;;;;;5104781;28;27490;-59
2021/07/05 08:08:26;;;;;;;6.57;1.30;;;21.00;80.10;;;;;;5104688;28;27513;-59
2021/07/05 08:11:10;;;;;;;2.90;1.33;;;21.00;80.50;;;;;;5104988;28;27388;-59
2021/07/05 08:13:55;;;;;;;5.35;1.40;;;21.00;80.20;;;;;;5104780;28;27432;-59
2021/07/05 08:16:39;;;;;;;1.25;1.02;;;21.00;80.20;;;;;;5104743;28;27367;-59
2021/07/05 08:19:24;;;;;;;3.08;1.35;;;21.00;80.10;;;;;;5104280;28;27360;-58
2021/07/05 08:22:08;;;;;;;3.35;1.65;;;21.00;80.40;;;;;;5104801;28;27398;-58
2021/07/05 08:24:55;;;;;;;3.45;1.17;;;21.00;80.20;;;;;;5104556;28;27372;-59
2021/07/05 08:27:40;;;;;;;2.97;1.27;;;21.00;80.30;;;;;;5104481;28;27423;-59
2021/07/05 08:30:25;;;;;;;1.55;1.27;;;21.00;80.10;;;;;;5104667;28;27442;-59
2021/07/05 08:33:10;;;;;;;1.88;1.15;;;21.00;80.60;;;;;;5101092;28;27404;-59
2021/07/05 08:35:56;;;;;;;2.80;1.35;;;21.00;80.90;;;;;;5104377;28;27420;-59
2021/07/05 08:38:41;;;;;;;3.38;1.20;;;21.00;81.10;;;;;;5103570;28;27460;-59
2021/07/05 08:41:26;;;;;;;1.98;1.30;;;21.00;82.30;;;;;;5105053;27;27501;-58
2021/07/05 08:44:12;;;;;;;4.72;1.40;;;21.00;81.30;;;;;;5108176;28;27434;-59
2021/07/05 08:46:57;;;;;;;2.13;1.23;;;21.10;81.60;;;;;;5107702;28;27465;-59
2021/07/05 08:49:41;;;;;;;3.00;1.30;;;21.10;82.10;;;;;;5107206;28;27473;-59
2021/07/05 08:52:31;;;;;;;2.88;1.30;;;21.10;82.20;;;;;;5108051;28;27950;-59
2021/07/05 08:55:21;;;;;;;2.42;0.98;;;21.20;82.10;;;;;;5093076;28;27374;-59
2021/07/05 08:58:08;;;;;;;2.10;0.80;;;21.20;82.10;;;;;;5107828;28;27455;-58
2021/07/05 09:00:53;;;;;;;5.13;1.20;;;21.20;81.40;;;;;;5107699;28;27395;-59
2021/07/05 09:03:38;;;;;;;1.02;0.93;;;21.20;81.90;;;;;;5107668;28;27485;-58
2021/07/05 09:06:24;;;;;;;1.40;1.00;;;21.20;80.90;;;;;;5107877;28;27458;-59
2021/07/05 09:09:09;;;;;;;1.08;0.80;;;21.20;81.60;;;;;;5107614;28;27411;-59
2021/07/05 09:12:00;;;;;;;1.77;0.90;;;21.20;82.10;;;;;;5104563;28;27398;-58
2021/07/05 09:14:45;;;;;;;1.20;0.75;;;21.20;81.60;;;;;;5106396;28;27427;-59
2021/07/05 09:17:33;;;;;;;3.75;0.73;;;21.20;81.20;;;;;;5107125;28;27488;-59
2021/07/05 09:20:21;;;;;;;0.80;0.80;;;21.20;81.20;;;;;;5107464;28;27415;-59
2021/07/05 09:23:13;;;;;;;1.17;0.85;;;21.20;82.30;;;;;;5107679;28;27336;-59
2021/07/05 09:25:57;;;;;;;1.92;0.70;;;21.20;81.20;;;;;;5107304;28;27528;-58
2021/07/05 09:28:42;;;;;;;3.95;1.30;;;21.20;81.20;;;;;;5107207;28;27477;-58
2021/07/05 09:31:41;;;;;;;1.48;0.52;;;21.20;83.00;;;;;;5107517;28;27423;-59
2021/07/05 09:34:31;;;;;;;0.73;0.60;;;21.30;82.70;;;;;;5107450;28;27408;-59
2021/07/05 09:37:23;;;;;;;0.88;0.57;;;21.30;83.00;;;;;;5106843;28;27434;-59
2021/07/05 09:40:10;;;;;;;2.92;1.20;;;21.30;83.30;;;;;;5105571;28;27586;-59
2021/07/05 09:42:55;;;;;;;1.25;0.70;;;21.40;83.10;;;;;;5104072;28;27489;-59
2021/07/05 09:45:39;;;;;;;0.73;0.50;;;21.40;82.60;;;;;;5103318;28;27393;-59
2021/07/05 09:48:25;;;;;;;0.50;0.50;;;21.40;82.20;;;;;;5107227;28;27377;-59
2021/07/05 09:51:10;;;;;;;1.33;0.57;;;21.40;82.70;;;;;;5107191;28;27431;-59
2021/07/05 09:53:55;;;;;;;0.40;0.40;;;21.40;82.20;;;;;;5106623;27;27464;-59
2021/07/05 09:56:40;;;;;;;0.45;0.45;;;21.40;81.00;;;;;;5106187;28;27459;-59
2021/07/05 09:59:25;;;;;;;0.57;0.50;;;21.40;80.80;;;;;;5106698;28;27411;-59
2021/07/05 10:02:11;;;;;;;1.17;0.50;;;21.40;80.50;;;;;;5106685;28;27427;-59
2021/07/05 10:05:12;;;;;;;2.05;0.60;;;21.40;81.00;;;;;;5106773;28;27457;-59
2021/07/05 10:08:02;;;;;;;0.63;0.52;;;21.40;80.90;;;;;;5106208;28;27585;-59
2021/07/05 10:10:47;;;;;;;2.33;0.30;;;21.40;81.30;;;;;;5106528;28;27410;-60
2021/07/05 10:13:31;;;;;;;3.53;1.05;;;21.50;81.20;;;;;;5106513;28;27473;-59
2021/07/05 10:16:16;;;;;;;1.10;0.70;;;21.50;80.70;;;;;;5106427;28;27453;-59
2021/07/05 10:19:01;;;;;;;1.33;0.70;;;21.50;80.60;;;;;;5106019;28;27377;-60
2021/07/05 10:21:45;;;;;;;0.63;0.60;;;21.50;80.60;;;;;;5103384;28;27860;-59
2021/07/05 10:24:30;;;;;;;0.70;0.57;;;21.60;81.70;;;;;;5106362;28;27616;-59
2021/07/05 10:27:15;;;;;;;1.40;0.60;;;21.60;81.40;;;;;;5102363;28;27415;-59
2021/07/05 10:30:02;;;;;;;0.70;0.70;;;21.60;81.30;;;;;;5106585;28;27423;-59
2021/07/05 10:32:47;;;;;;;1.25;0.75;;;21.60;81.70;;;;;;5106223;28;27465;-59
2021/07/05 10:35:37;;;;;;;1.10;0.68;;;21.60;81.40;;;;;;5105597;28;27459;-59
2021/07/05 10:38:26;;;;;;;0.70;0.70;;;21.60;82.50;;;;;;5105535;28;27348;-59
2021/07/05 10:41:12;;;;;;;0.70;0.60;;;21.70;83.10;;;;;;5104785;28;27420;-59
2021/07/05 10:44:06;;;;;;;1.52;0.75;;;21.90;84.10;;;;;;5105532;28;27888;-59
2021/07/05 10:46:53;;;;;;;1.25;0.73;;;22.00;84.60;;;;;;5106261;28;27436;-59
2021/07/05 10:49:39;;;;;;;1.58;0.80;;;22.00;84.40;;;;;;5106059;28;27403;-58
2021/07/05 10:52:24;;;;;;;1.58;0.85;;;22.20;84.20;;;;;;5105962;28;27398;-59
2021/07/05 10:55:12;;;;;;;0.68;0.68;;;22.20;84.80;;;;;;5105414;28;27488;-59
2021/07/05 10:57:56;;;;;;;1.48;0.93;;;22.30;84.90;;;;;;5105867;28;27528;-59
2021/07/05 11:00:43;;;;;;;1.73;0.73;;;22.30;85.10;;;;;;5105892;28;27370;-59
2021/07/05 11:03:40;;;;;;;1.27;0.70;;;22.40;85.10;;;;;;5105287;28;27320;-58
2021/07/05 11:06:27;;;;;;;1.27;0.90;;;22.40;85.20;;;;;;5101040;28;27834;-59
2021/07/05 11:09:19;;;;;;;1.98;0.95;;;22.40;85.40;;;;;;5105899;28;27437;-59
2021/07/05 11:12:04;;;;;;;1.55;0.85;;;22.40;84.50;;;;;;5105682;28;27344;-60
2021/07/05 11:14:49;;;;;;;3.70;1.45;;;22.30;84.40;;;;;;5104868;28;27325;-59
2021/07/05 11:17:37;;;;;;;0.93;0.77;;;22.20;84.20;;;;;;5105212;28;27336;-59
2021/07/05 11:20:22;;;;;;;4.05;1.00;;;22.20;83.70;;;;;;5105703;28;27403;-60
2021/07/05 11:23:06;;;;;;;3.78;1.20;;;22.20;82.90;;;;;;5102242;28;27465;-59
2021/07/05 11:26:15;;;;;;;1.05;0.80;;;22.30;83.90;;;;;;5102402;28;27391;-59
2021/07/05 11:29:15;;;;;;;2.25;1.15;;;22.40;84.20;;;;;;5104251;28;27396;-59
2021/07/05 11:32:01;;;;;;;1.52;0.80;;;22.40;84.80;;;;;;5105581;28;27446;-58
2021/07/05 11:34:46;;;;;;;2.38;1.00;;;22.60;85.60;;;;;;5105381;28;27451;-58
2021/07/05 11:37:32;;;;;;;1.13;0.93;;;22.60;85.90;;;;;;5105247;28;27416;-58
2021/07/05 11:40:39;;;;;;;1.58;0.88;;;22.70;83.60;;;;;;5104599;28;27438;-59
2021/07/05 11:43:40;;;;;;;1.55;1.10;;;22.80;84.00;;;;;;5105152;28;27431;-59
2021/07/05 11:46:27;;;;;;;1.38;1.00;;;22.80;84.50;;;;;;5105418;28;27593;-59
2021/07/05 11:49:14;;;;;;;1.13;0.90;;;22.80;83.60;;;;;;5101747;28;27419;-59
2021/07/05 11:51:59;;;;;;;1.73;1.25;;;22.80;83.50;;;;;;5104986;28;27945;-59
2021/07/05 11:54:44;;;;;;;1.15;0.93;;;22.80;83.70;;;;;;5104005;28;27516;-59
2021/07/05 11:57:29;;;;;;;0.90;0.90;;;22.70;83.70;;;;;;5101460;28;27458;-59
2021/07/05 12:00:14;;;;;;;1.10;0.95;;;22.70;83.50;;;;;;5105232;28;27477;-59
2021/07/05 12:03:10;;;;;;;2.28;0.80;;;22.70;83.40;;;;;;5104869;28;27430;-59
2021/07/05 12:06:00;;;;;;;1.95;0.80;;;22.80;84.20;;;;;;5105138;28;27589;-59
2021/07/05 12:08:56;;;;;;;2.08;1.00;;;22.90;84.30;;;;;;5100804;28;27521;-59
2021/07/05 12:11:45;;;;;;;1.05;1.02;;;23.00;84.30;;;;;;5105064;28;27520;-59
2021/07/05 12:14:30;;;;;;;0.82;0.73;;;23.10;85.30;;;;;;5104811;28;27449;-60
2021/07/05 12:17:16;;;;;;;0.98;0.88;;;23.20;84.60;;;;;;5104299;28;27415;-59
2021/07/05 12:20:00;;;;;;;1.90;1.20;;;23.30;84.50;;;;;;5104706;28;27340;-59
2021/07/05 12:22:45;;;;;;;0.88;0.77;;;23.30;84.00;;;;;;5104522;28;27321;-60
2021/07/05 12:25:30;;;;;;;1.02;0.80;;;23.30;83.50;;;;;;5104773;28;27376;-60
2021/07/05 12:28:15;;;;;;;1.45;0.90;;;23.30;82.80;;;;;;5104541;28;27529;-59
2021/07/05 12:30:59;;;;;;;0.80;0.80;;;23.40;81.60;;;;;;5103781;28;27498;-59
2021/07/05 12:33:47;;;;;;;0.90;0.90;;;23.40;81.70;;;;;;5104691;28;27452;-59
2021/07/05 12:36:32;;;;;;;0.63;0.63;;;23.50;82.40;;;;;;5104576;28;27367;-59
2021/07/05 12:39:18;;;;;;;0.75;0.68;;;23.70;82.70;;;;;;5103887;28;27566;-59
2021/07/05 12:42:28;;;;;;;2.95;1.10;;;23.80;82.00;;;;;;5103471;28;27404;-59
2021/07/05 12:45:24;;;;;;;4.22;1.45;;;24.00;81.50;;;;;;5104575;28;27448;-58
2021/07/05 12:48:20;;;;;;;1.10;0.63;;;24.20;81.00;;;;;;5103580;28;27484;-58
2021/07/05 12:51:05;;;;;;;0.80;0.70;;;24.40;80.70;;;;;;5103978;28;27478;-58
2021/07/05 12:53:50;;;;;;;1.25;0.40;;;24.60;80.90;;;;;;5104283;28;27454;-58
2021/07/05 12:56:34;;;;;;;0.88;0.70;;;24.80;81.10;;;;;;5104378;28;26849;-57
2021/07/05 12:59:20;;;;;;;1.80;0.80;;;25.00;81.40;;;;;;5101084;28;27488;-57
2021/07/05 13:02:05;;;;;;;0.60;0.50;;;25.10;80.90;;;;;;5104185;28;27478;-57
2021/07/05 13:05:23;;;;;;;0.70;0.70;;;25.20;81.00;;;;;;5100936;28;27381;-57
2021/07/05 13:08:08;;;;;;;1.33;0.50;;;25.20;80.90;;;;;;5094101;28;27711;-57
2021/07/05 13:10:53;;;;;;;2.70;0.63;;;25.20;80.00;;;;;;5104168;28;27324;-58
2021/07/05 13:13:40;;;;;;;0.55;0.50;;;25.10;79.10;;;;;;5103987;28;27534;-57
2021/07/05 13:16:26;;;;;;;1.00;0.43;;;25.00;78.50;;;;;;5103958;28;27382;-57
2021/07/05 13:19:20;;;;;;;2.97;0.60;;;24.90;77.80;;;;;;5100696;28;27536;-58
2021/07/05 13:22:23;;;;;;;1.13;0.70;;;24.80;77.30;;;;;;5103868;28;27375;-57
2021/07/05 13:25:07;;;;;;;4.25;0.77;;;24.70;77.10;;;;;;5103817;28;27406;-57
2021/07/05 13:27:53;;;;;;;0.47;0.45;;;24.60;76.50;;;;;;5086127;28;26915;-57
2021/07/05 13:30:38;;;;;;;0.60;0.55;;;24.50;76.10;;;;;;5107280;28;27398;-58
2021/07/05 13:33:32;;;;;;;1.17;0.65;;;24.40;75.40;;;;;;5106740;28;27931;-57
2021/07/05 13:36:16;;;;;;;0.70;0.70;;;24.40;75.10;;;;;;5107064;28;27378;-57
2021/07/05 13:39:01;;;;;;;1.85;0.65;;;24.30;75.00;;;;;;5106707;28;27391;-57
2021/07/05 13:41:46;;;;;;;0.70;0.60;;;24.20;74.50;;;;;;5105490;28;27330;-57
2021/07/05 13:44:34;;;;;;;0.70;0.70;;;24.20;75.00;;;;;;5106095;28;27837;-57
2021/07/05 13:47:26;;;;;;;1.08;0.70;;;24.20;75.60;;;;;;5107323;28;27348;-57
2021/07/05 13:50:22;;;;;;;0.73;0.60;;;24.20;75.70;;;;;;5106318;28;27405;-57
2021/07/05 13:53:28;;;;;;;0.93;0.77;;;24.20;75.70;;;;;;5106967;28;27330;-57
2021/07/05 13:56:21;;;;;;;1.60;0.68;;;24.30;75.00;;;;;;5106700;28;27414;-58
2021/07/05 13:59:06;;;;;;;0.93;0.82;;;24.40;75.30;;;;;;5107074;28;27428;-58
2021/07/05 14:01:51;;;;;;;1.63;0.93;;;24.40;75.10;;;;;;5106167;28;27397;-57
2021/07/05 14:04:41;;;;;;;2.60;0.70;;;24.50;75.20;;;;;;5107092;28;27328;-57
2021/07/05 14:07:26;;;;;;;2.40;0.63;;;24.50;74.50;;;;;;5106607;28;27844;-58
2021/07/05 14:10:12;;;;;;;1.17;0.65;;;24.60;73.40;;;;;;5106613;28;27405;-57
2021/07/05 14:12:57;;;;;;;1.25;0.73;;;24.60;72.50;;;;;;5089656;28;27430;-58
2021/07/05 14:15:42;;;;;;;1.20;0.70;;;24.60;72.10;;;;;;5106870;28;27404;-58
2021/07/05 14:18:28;;;;;;;2.13;0.70;;;24.70;72.30;;;;;;5106514;28;27868;-59
2021/07/05 14:21:15;;;;;;;4.55;1.00;;;24.70;71.90;;;;;;5106421;28;27509;-59
2021/07/05 14:24:00;;;;;;;0.98;0.70;;;24.70;71.50;;;;;;5106743;28;27350;-59
2021/07/05 14:26:45;;;;;;;0.90;0.70;;;24.70;70.90;;;;;;5106690;28;26932;-58
2021/07/05 14:29:30;;;;;;;1.70;0.70;;;24.80;70.90;;;;;;5105849;28;27431;-58